Time;durP1;ratioP1;P1;durP2;ratioP2;P2;SDS_P1;SDS_P2;PMS_P1;PMS_P2;Temp;Humidity;BMP_temperature;BMP_pressure;BME280_temperature;BME280_humidity;BME280_pressure;Samples;Min_cycle;Max_cycle;Signal;HPM_P1;HPM_P2
2024/04/16 00:01:37;;;;;;;0.75;0.22;;;18.80;86.10;;;;;;5386131;26;20340;-40
2024/04/16 00:04:03;;;;;;;0.47;0.20;;;18.80;86.10;;;;;;5417767;26;20011;-40
2024/04/16 00:06:29;;;;;;;0.35;0.10;;;18.80;86.10;;;;;;5417759;26;20026;-40
2024/04/16 00:08:54;;;;;;;0.80;0.30;;;18.80;86.10;;;;;;5417389;26;19999;-40
2024/04/16 00:11:20;;;;;;;0.88;0.30;;;18.80;86.10;;;;;;5417461;26;19995;-40
2024/04/16 00:13:46;;;;;;;0.68;0.28;;;18.80;86.00;;;;;;5417815;26;20037;-40
2024/04/16 00:16:12;;;;;;;0.68;0.35;;;18.80;86.00;;;;;;5417869;26;20002;-40
2024/04/16 00:18:37;;;;;;;0.95;0.22;;;18.80;86.00;;;;;;5386056;26;20000;-40
2024/04/16 00:21:03;;;;;;;1.70;0.40;;;18.80;86.10;;;;;;5417340;26;20449;-39
2024/04/16 00:23:29;;;;;;;1.27;0.50;;;18.80;86.00;;;;;;5417463;26;20398;-40
2024/04/16 00:25:54;;;;;;;0.88;0.20;;;18.70;86.00;;;;;;5417352;26;20007;-40
2024/04/16 00:28:20;;;;;;;1.08;0.30;;;18.70;86.00;;;;;;5417168;26;20437;-40
2024/04/16 00:30:46;;;;;;;2.05;0.52;;;18.80;86.00;;;;;;5417097;26;20000;-40
2024/04/16 00:33:11;;;;;;;0.73;0.40;;;18.80;86.90;;;;;;5417237;26;19999;-40
2024/04/16 00:35:37;;;;;;;1.48;0.40;;;18.70;86.00;;;;;;5417352;26;20440;-39
2024/04/16 00:38:03;;;;;;;0.88;0.30;;;18.70;86.00;;;;;;5416987;26;19995;-39
2024/04/16 00:40:29;;;;;;;0.82;0.22;;;18.70;86.20;;;;;;5416681;26;20340;-40
2024/04/16 00:42:54;;;;;;;0.63;0.20;;;18.70;86.10;;;;;;5417191;26;20081;-40
2024/04/16 00:45:20;;;;;;;0.93;0.30;;;18.70;86.10;;;;;;5416965;26;20007;-40
2024/04/16 00:47:46;;;;;;;1.33;0.30;;;18.70;86.10;;;;;;5416864;26;19995;-40
2024/04/16 00:50:13;;;;;;;0.95;0.30;;;18.70;86.10;;;;;;5417148;26;19999;-39
2024/04/16 00:52:41;;;;;;;1.98;0.45;;;18.60;86.80;;;;;;5416943;26;19995;-40
2024/04/16 00:55:08;;;;;;;2.67;0.40;;;18.60;86.10;;;;;;5416932;26;20020;-40
2024/04/16 00:57:35;;;;;;;1.42;0.50;;;18.60;86.00;;;;;;5416479;26;20000;-40
2024/04/16 01:00:00;;;;;;;1.90;0.47;;;18.60;86.10;;;;;;5416867;26;19995;-40
2024/04/16 01:02:26;;;;;;;1.40;0.50;;;18.60;86.00;;;;;;5416667;26;20068;-40
2024/04/16 01:04:54;;;;;;;1.48;0.40;;;18.60;86.00;;;;;;5416850;26;20000;-40
2024/04/16 01:07:20;;;;;;;2.05;0.40;;;18.60;86.00;;;;;;5416687;26;19995;-39
2024/04/16 01:09:45;;;;;;;1.67;0.50;;;18.60;86.10;;;;;;5416773;26;20072;-40
2024/04/16 01:12:11;;;;;;;2.00;0.50;;;18.60;86.00;;;;;;5416576;26;20068;-40
2024/04/16 01:14:37;;;;;;;2.47;0.57;;;18.60;86.00;;;;;;5416629;26;20018;-40
2024/04/16 01:17:02;;;;;;;2.17;0.50;;;18.60;86.00;;;;;;5416660;26;20002;-40
2024/04/16 01:19:28;;;;;;;2.38;0.60;;;18.60;86.00;;;;;;5416598;26;20068;-40
2024/04/16 01:21:54;;;;;;;1.50;0.40;;;18.60;86.00;;;;;;5416433;26;20021;-40
2024/04/16 01:24:20;;;;;;;1.25;0.40;;;18.60;86.00;;;;;;5416488;26;19999;-40
2024/04/16 01:26:46;;;;;;;1.27;0.40;;;18.60;85.90;;;;;;5416723;26;20011;-40
2024/04/16 01:29:12;;;;;;;1.42;0.60;;;18.60;85.90;;;;;;5416357;26;19999;-40
2024/04/16 01:31:38;;;;;;;0.93;0.40;;;18.60;85.80;;;;;;5416298;26;20010;-39
2024/04/16 01:34:03;;;;;;;2.75;0.52;;;18.60;86.00;;;;;;5416398;26;20461;-40
2024/04/16 01:36:29;;;;;;;2.00;0.43;;;18.50;85.80;;;;;;5416223;26;20011;-40
2024/04/16 01:38:56;;;;;;;1.83;0.50;;;18.50;85.80;;;;;;5415951;26;19999;-40
2024/04/16 01:41:21;;;;;;;1.92;0.60;;;18.50;85.80;;;;;;5416229;26;20443;-40
2024/04/16 01:43:47;;;;;;;1.98;0.60;;;18.50;85.90;;;;;;5416501;26;19999;-40
2024/04/16 01:46:12;;;;;;;2.05;0.50;;;18.50;85.80;;;;;;5416651;26;19992;-39
2024/04/16 01:48:38;;;;;;;1.65;0.60;;;18.50;85.90;;;;;;5416039;26;19996;-40
2024/04/16 01:51:04;;;;;;;2.05;0.60;;;18.50;85.80;;;;;;5414865;26;20028;-40
2024/04/16 01:53:29;;;;;;;1.48;0.60;;;18.50;85.80;;;;;;5416008;26;20380;-40
2024/04/16 01:55:55;;;;;;;2.22;0.63;;;18.50;85.90;;;;;;5416498;26;20003;-40
2024/04/16 01:58:21;;;;;;;1.98;0.45;;;18.50;85.80;;;;;;5416006;26;20433;-40
2024/04/16 02:00:46;;;;;;;1.85;0.40;;;18.50;85.70;;;;;;5415984;26;20005;-40
2024/04/16 02:03:12;;;;;;;2.30;0.43;;;18.50;85.80;;;;;;5415984;26;20005;-39
2024/04/16 02:05:38;;;;;;;1.40;0.45;;;18.50;85.70;;;;;;5416181;26;20545;-40
2024/04/16 02:08:03;;;;;;;1.25;0.50;;;18.40;85.70;;;;;;5415720;26;19999;-40
2024/04/16 02:10:29;;;;;;;1.63;0.60;;;18.50;85.80;;;;;;5415897;26;20075;-39
2024/04/16 02:12:55;;;;;;;1.90;0.45;;;18.40;85.70;;;;;;5415751;26;20020;-39
2024/04/16 02:15:20;;;;;;;1.15;0.45;;;18.40;85.70;;;;;;5415836;26;19999;-40
2024/04/16 02:17:46;;;;;;;1.60;0.60;;;18.40;85.70;;;;;;5415495;26;20072;-39
2024/04/16 02:20:12;;;;;;;2.20;0.50;;;18.40;85.70;;;;;;5415454;26;20036;-40
2024/04/16 02:22:37;;;;;;;2.10;0.60;;;18.40;85.70;;;;;;5415654;26;20009;-39
2024/04/16 02:25:05;;;;;;;1.67;0.50;;;18.40;85.60;;;;;;5415774;26;20532;-40
2024/04/16 02:27:30;;;;;;;3.97;0.77;;;18.40;85.60;;;;;;5415426;26;20073;-40
2024/04/16 02:29:56;;;;;;;2.47;0.50;;;18.40;85.50;;;;;;5415581;26;20007;-40
2024/04/16 02:32:23;;;;;;;1.25;0.50;;;18.40;85.70;;;;;;5415395;26;20007;-40
2024/04/16 02:34:49;;;;;;;2.75;0.70;;;18.40;85.50;;;;;;5415250;26;20010;-40
2024/04/16 02:37:14;;;;;;;1.52;0.50;;;18.40;86.30;;;;;;5415397;26;20352;-39
2024/04/16 02:39:40;;;;;;;2.10;0.50;;;18.40;85.50;;;;;;5468911;21;20332;-45
2024/04/16 02:42:05;;;;;;;2.22;0.93;;;18.40;85.50;;;;;;5450623;26;19999;-39
2024/04/16 02:44:31;;;;;;;1.88;0.65;;;18.40;85.50;;;;;;5419478;26;20404;-40
2024/04/16 02:46:57;;;;;;;2.78;0.73;;;18.40;85.40;;;;;;5451157;26;20335;-40
2024/04/16 02:49:23;;;;;;;2.10;0.65;;;18.40;85.40;;;;;;5451219;26;20010;-42
2024/04/16 02:51:48;;;;;;;1.85;0.70;;;18.40;85.40;;;;;;5451508;26;20005;-44
2024/04/16 02:54:14;;;;;;;1.25;0.50;;;18.40;85.40;;;;;;5451053;26;19999;-41
2024/04/16 02:56:39;;;;;;;1.75;0.65;;;18.30;85.20;;;;;;5450852;26;20439;-39
2024/04/16 02:59:05;;;;;;;3.80;0.77;;;18.30;85.30;;;;;;5451263;26;20002;-41
2024/04/16 03:01:32;;;;;;;2.05;0.65;;;18.30;85.30;;;;;;5450877;26;20417;-40
2024/04/16 03:03:58;;;;;;;3.20;0.80;;;18.30;85.30;;;;;;5453599;26;19990;-42
2024/04/16 03:06:24;;;;;;;1.98;0.80;;;18.30;85.20;;;;;;5452718;26;20072;-40
2024/04/16 03:08:52;;;;;;;3.08;0.80;;;18.30;85.30;;;;;;5454348;26;19999;-42
2024/04/16 03:11:18;;;;;;;3.15;1.00;;;18.30;85.30;;;;;;5454190;26;19999;-42
2024/04/16 03:13:47;;;;;;;1.40;0.68;;;18.30;85.30;;;;;;5454304;26;20067;-40
2024/04/16 03:16:12;;;;;;;1.85;0.77;;;18.30;85.40;;;;;;5454694;26;20013;-40
2024/04/16 03:18:38;;;;;;;1.10;0.32;;;18.30;85.30;;;;;;5453907;26;19998;-44
2024/04/16 03:21:04;;;;;;;2.20;0.73;;;18.30;85.30;;;;;;5454174;26;20450;-43
2024/04/16 03:23:29;;;;;;;3.42;0.80;;;18.30;85.30;;;;;;5454189;26;19995;-42
2024/04/16 03:25:55;;;;;;;1.50;0.50;;;18.30;85.40;;;;;;5454184;26;20404;-41
2024/04/16 03:28:21;;;;;;;2.30;1.00;;;18.30;85.40;;;;;;5453938;26;20006;-44
2024/04/16 03:30:47;;;;;;;2.28;0.73;;;18.30;85.40;;;;;;5453974;26;19999;-40
2024/04/16 03:33:12;;;;;;;2.25;0.80;;;18.30;85.40;;;;;;5453935;26;20009;-40
2024/04/16 03:35:38;;;;;;;1.48;0.57;;;18.20;85.30;;;;;;5452372;26;20452;-41
2024/04/16 03:38:03;;;;;;;1.85;0.70;;;18.20;85.30;;;;;;5453708;26;19995;-39
2024/04/16 03:40:29;;;;;;;2.85;0.70;;;18.20;85.30;;;;;;5453658;26;20067;-42
2024/04/16 03:42:55;;;;;;;2.22;0.60;;;18.20;85.30;;;;;;5453991;26;20034;-42
2024/04/16 03:45:20;;;;;;;2.10;0.57;;;18.20;85.20;;;;;;5453900;26;20005;-40
2024/04/16 03:47:46;;;;;;;1.58;0.60;;;18.20;85.10;;;;;;5453573;26;20453;-40
2024/04/16 03:50:12;;;;;;;2.88;0.80;;;18.20;85.70;;;;;;5453743;26;19990;-41
2024/04/16 03:52:37;;;;;;;3.03;0.80;;;18.20;84.80;;;;;;5453740;26;19999;-43
2024/04/16 03:55:05;;;;;;;2.97;0.70;;;18.20;84.70;;;;;;5453622;26;19995;-42
2024/04/16 03:57:30;;;;;;;2.08;0.70;;;18.20;84.60;;;;;;5453285;26;20030;-40
2024/04/16 04:02:40;;;;;;;2.55;0.90;;;18.20;84.50;;;;;;5453694;26;20005;-42
2024/04/16 04:05:06;;;;;;;2.80;0.88;;;18.20;84.50;;;;;;5453718;26;19991;-39
2024/04/16 04:07:32;;;;;;;2.95;0.85;;;18.20;84.30;;;;;;5453332;26;20002;-44
2024/04/16 04:09:58;;;;;;;3.10;1.17;;;18.20;85.00;;;;;;5453522;26;20540;-42
2024/04/16 04:12:23;;;;;;;2.45;0.90;;;18.20;84.10;;;;;;5453381;26;20071;-41
2024/04/16 04:14:49;;;;;;;2.40;0.90;;;18.20;84.10;;;;;;5452708;26;20006;-44
2024/04/16 04:17:15;;;;;;;2.70;0.90;;;18.20;84.10;;;;;;5453335;26;20432;-42
2024/04/16 04:19:40;;;;;;;2.45;0.80;;;18.20;84.00;;;;;;5453536;26;20066;-40
2024/04/16 04:22:06;;;;;;;3.20;0.60;;;18.20;84.00;;;;;;5453600;26;19998;-44
2024/04/16 04:24:31;;;;;;;1.85;0.68;;;18.20;84.00;;;;;;5453509;26;20025;-40
2024/04/16 04:26:57;;;;;;;3.78;1.00;;;18.10;83.90;;;;;;5453304;26;19999;-42
2024/04/16 04:29:22;;;;;;;2.42;0.70;;;18.20;83.90;;;;;;5453235;26;19999;-39
2024/04/16 04:31:48;;;;;;;1.73;0.90;;;18.10;83.90;;;;;;5453172;26;20009;-41
2024/04/16 04:34:14;;;;;;;2.13;0.70;;;18.10;83.90;;;;;;5451410;26;19995;-39
2024/04/16 04:36:39;;;;;;;3.50;1.00;;;18.10;83.70;;;;;;5452850;26;20009;-41
2024/04/16 04:39:05;;;;;;;2.53;0.77;;;18.10;83.70;;;;;;5453156;26;20068;-40
2024/04/16 04:41:31;;;;;;;2.75;0.98;;;18.10;83.70;;;;;;5453245;26;20002;-40
2024/04/16 04:43:57;;;;;;;3.53;0.95;;;18.20;83.60;;;;;;5453154;26;20402;-43
2024/04/16 04:46:23;;;;;;;4.45;1.00;;;18.10;83.50;;;;;;5452990;26;19999;-39
2024/04/16 04:48:48;;;;;;;2.08;0.93;;;18.10;83.50;;;;;;5452901;26;19998;-40
2024/04/16 04:51:14;;;;;;;2.92;1.05;;;18.10;83.40;;;;;;5452746;26;20067;-40
2024/04/16 04:53:40;;;;;;;2.80;1.00;;;18.10;83.30;;;;;;5453097;26;19998;-40
2024/04/16 04:56:07;;;;;;;2.90;0.90;;;18.20;83.40;;;;;;5452902;26;20343;-42
2024/04/16 04:58:33;;;;;;;2.33;0.82;;;18.10;83.30;;;;;;5452915;26;20003;-39
2024/04/16 05:00:59;;;;;;;3.15;0.85;;;18.10;83.30;;;;;;5453096;26;19999;-44
2024/04/16 05:03:25;;;;;;;2.13;0.90;;;18.10;83.30;;;;;;5453112;26;20038;-42
2024/04/16 05:05:50;;;;;;;4.55;1.20;;;18.10;83.30;;;;;;5452961;26;19995;-41
2024/04/16 05:08:18;;;;;;;2.60;1.10;;;18.10;83.20;;;;;;5452507;26;20002;-41
2024/04/16 05:10:52;;;;;;;2.70;0.98;;;18.10;83.20;;;;;;5452650;26;20504;-43
2024/04/16 05:13:17;;;;;;;2.78;1.30;;;18.10;83.20;;;;;;5452724;26;19991;-40
2024/04/16 05:15:45;;;;;;;3.92;1.20;;;18.10;83.20;;;;;;5452551;26;20001;-43
2024/04/16 05:18:11;;;;;;;3.22;0.90;;;18.00;83.20;;;;;;5452453;26;20459;-41
2024/04/16 05:20:37;;;;;;;2.97;0.90;;;18.00;84.00;;;;;;5452443;26;19995;-39
2024/04/16 05:23:03;;;;;;;3.15;1.20;;;18.00;83.10;;;;;;5452644;26;19999;-40
2024/04/16 05:25:29;;;;;;;2.05;0.88;;;18.00;83.10;;;;;;5452135;26;19999;-42
2024/04/16 05:27:55;;;;;;;2.25;0.88;;;18.00;83.10;;;;;;5451144;26;19998;-40
2024/04/16 05:30:20;;;;;;;2.53;0.88;;;18.00;83.00;;;;;;5452267;26;20029;-40
2024/04/16 05:32:47;;;;;;;2.53;0.80;;;18.00;83.00;;;;;;5452221;26;19998;-40
2024/04/16 05:35:13;;;;;;;2.85;0.93;;;18.00;83.00;;;;;;5452371;26;19999;-41
2024/04/16 05:37:39;;;;;;;2.97;1.00;;;18.00;83.00;;;;;;5452239;26;20454;-40
2024/04/16 05:40:05;;;;;;;2.55;0.90;;;18.00;82.90;;;;;;5452215;26;20008;-41
2024/04/16 05:42:31;;;;;;;2.28;0.80;;;18.00;83.00;;;;;;5452248;26;20021;-40
2024/04/16 05:44:56;;;;;;;3.40;1.00;;;18.00;82.90;;;;;;5452171;26;20002;-41
2024/04/16 05:47:22;;;;;;;2.13;0.80;;;18.00;82.90;;;;;;5452150;26;19995;-40
2024/04/16 05:49:48;;;;;;;2.70;1.25;;;18.00;82.90;;;;;;5451919;26;19995;-41
2024/04/16 05:52:13;;;;;;;3.97;1.13;;;18.00;82.90;;;;;;5452274;26;19995;-40
2024/04/16 05:54:39;;;;;;;3.13;1.15;;;18.00;82.90;;;;;;5452313;26;19994;-39
2024/04/16 05:57:05;;;;;;;3.08;1.10;;;18.00;83.00;;;;;;5452081;26;20002;-42
2024/04/16 05:59:31;;;;;;;4.63;1.42;;;18.00;82.90;;;;;;5451875;26;20321;-41
2024/04/16 06:01:57;;;;;;;3.63;1.10;;;18.00;82.90;;;;;;5451786;26;19995;-42
2024/04/16 06:04:22;;;;;;;2.45;0.90;;;18.00;83.00;;;;;;5451931;26;20009;-41
2024/04/16 06:06:48;;;;;;;3.25;0.90;;;18.00;82.90;;;;;;5451862;26;20458;-39
2024/04/16 06:09:14;;;;;;;2.72;0.95;;;18.00;82.80;;;;;;5451687;26;20127;-42
2024/04/16 06:11:40;;;;;;;2.28;0.90;;;18.00;83.00;;;;;;5451739;26;20007;-39
2024/04/16 06:14:06;;;;;;;2.72;1.17;;;18.00;82.80;;;;;;5451616;26;20009;-41
2024/04/16 06:16:32;;;;;;;2.53;0.82;;;17.90;82.70;;;;;;5451592;26;20009;-42
2024/04/16 06:18:57;;;;;;;3.88;1.15;;;17.90;82.70;;;;;;5451403;26;19995;-39
2024/04/16 06:21:23;;;;;;;2.35;0.70;;;17.90;82.70;;;;;;5451600;26;19995;-41
2024/04/16 06:23:49;;;;;;;2.13;0.88;;;17.90;82.70;;;;;;5451686;26;20447;-42
2024/04/16 06:26:15;;;;;;;3.72;1.10;;;17.90;82.60;;;;;;5451746;26;20006;-40
2024/04/16 06:28:41;;;;;;;2.72;0.85;;;17.90;82.60;;;;;;5451287;26;19999;-40
2024/04/16 06:31:06;;;;;;;2.35;0.88;;;17.90;82.60;;;;;;5451275;26;19995;-40
2024/04/16 06:33:36;;;;;;;3.75;1.20;;;17.90;82.60;;;;;;5451309;26;20532;-41
2024/04/16 06:36:05;;;;;;;4.20;1.20;;;17.90;82.50;;;;;;5451307;26;19995;-41
2024/04/16 06:38:32;;;;;;;2.97;0.98;;;17.90;82.60;;;;;;5456252;26;20002;-39
2024/04/16 06:40:59;;;;;;;3.53;1.02;;;17.90;83.30;;;;;;5458972;26;20034;-40
2024/04/16 06:43:26;;;;;;;3.33;1.02;;;17.90;82.60;;;;;;5459062;26;20006;-40
2024/04/16 06:45:51;;;;;;;2.70;1.00;;;17.90;82.60;;;;;;5458720;26;20023;-42
2024/04/16 06:48:17;;;;;;;3.08;1.33;;;17.90;82.70;;;;;;5458692;26;20063;-41
2024/04/16 06:50:46;;;;;;;4.60;1.08;;;17.90;82.60;;;;;;5458779;26;19998;-41
2024/04/16 06:53:12;;;;;;;4.25;0.98;;;17.90;82.60;;;;;;5458750;26;20027;-41
2024/04/16 06:55:37;;;;;;;2.97;1.02;;;17.90;82.70;;;;;;5457092;26;20331;-41
2024/04/16 06:58:03;;;;;;;4.40;1.08;;;17.90;82.60;;;;;;5458429;26;20003;-40
2024/04/16 07:00:29;;;;;;;2.63;0.93;;;17.90;82.60;;;;;;5458363;26;20347;-42
2024/04/16 07:02:54;;;;;;;3.15;1.08;;;17.90;82.60;;;;;;5458665;26;20013;-39
2024/04/16 07:05:20;;;;;;;2.65;1.00;;;17.90;82.70;;;;;;5458708;26;20009;-39
2024/04/16 07:07:45;;;;;;;3.22;1.10;;;17.90;82.70;;;;;;5458332;26;19995;-40
2024/04/16 07:10:11;;;;;;;4.95;1.00;;;17.90;82.70;;;;;;5458474;26;19995;-45
2024/04/16 07:12:37;;;;;;;2.33;1.20;;;17.90;82.80;;;;;;5458416;26;20009;-41
2024/04/16 07:15:02;;;;;;;2.88;0.90;;;17.90;82.70;;;;;;5458312;26;20459;-43
2024/04/16 07:17:30;;;;;;;3.05;1.10;;;17.90;82.80;;;;;;5458278;26;19995;-39
2024/04/16 07:19:56;;;;;;;3.10;1.05;;;17.90;82.80;;;;;;5458202;26;20446;-40
2024/04/16 07:22:22;;;;;;;4.20;0.68;;;17.90;82.70;;;;;;5458258;26;20003;-40
2024/04/16 07:24:50;;;;;;;3.42;0.75;;;17.90;82.50;;;;;;5458738;26;20063;-42
2024/04/16 07:27:16;;;;;;;5.88;1.17;;;17.90;82.60;;;;;;5458498;26;20441;-40
2024/04/16 07:29:42;;;;;;;4.90;1.05;;;17.90;82.50;;;;;;5458011;26;20034;-40
2024/04/16 07:32:08;;;;;;;3.30;1.20;;;17.90;82.70;;;;;;5458122;26;19999;-40
2024/04/16 07:34:33;;;;;;;3.88;1.25;;;17.90;82.60;;;;;;5458118;26;20066;-40
2024/04/16 07:36:59;;;;;;;3.25;1.15;;;18.00;82.60;;;;;;5458052;26;19998;-39
2024/04/16 07:39:25;;;;;;;2.65;1.02;;;18.00;82.40;;;;;;5457961;26;20417;-40
2024/04/16 07:41:50;;;;;;;2.20;0.80;;;18.10;82.40;;;;;;5457853;26;20048;-40
2024/04/16 07:44:17;;;;;;;3.03;0.95;;;18.10;82.40;;;;;;5457712;26;20096;-41
2024/04/16 07:46:43;;;;;;;2.13;0.80;;;18.10;82.30;;;;;;5458126;26;19999;-41
2024/04/16 07:49:09;;;;;;;3.00;0.98;;;18.20;82.20;;;;;;5455278;26;19999;-41
2024/04/16 07:51:34;;;;;;;2.63;0.80;;;18.20;81.80;;;;;;5451973;26;20333;-41
2024/04/16 07:54:00;;;;;;;2.00;0.73;;;18.30;82.00;;;;;;5453723;26;19999;-42
2024/04/16 07:56:25;;;;;;;6.90;1.20;;;18.30;82.00;;;;;;5453644;26;19995;-42
2024/04/16 07:58:51;;;;;;;34.10;3.08;;;18.20;71.20;;;;;;5453028;26;20067;-41
2024/04/16 08:01:17;;;;;;;7.35;1.50;;;18.00;69.40;;;;;;5453557;26;20010;-43
2024/04/16 08:03:42;;;;;;;7.13;1.30;;;17.60;70.30;;;;;;5453741;26;20448;-40
2024/04/16 08:06:10;;;;;;;6.55;1.35;;;17.40;72.10;;;;;;5453628;26;19995;-41
2024/04/16 08:08:36;;;;;;;5.25;1.60;;;17.30;72.30;;;;;;5453469;26;20011;-44
2024/04/16 08:11:12;;;;;;;5.43;1.17;;;17.40;73.20;;;;;;5453486;26;20471;-42
2024/04/16 08:13:39;;;;;;;9.50;1.40;;;17.40;73.70;;;;;;5453351;26;20454;-40
2024/04/16 08:16:05;;;;;;;7.82;1.80;;;17.50;74.00;;;;;;5453422;26;19995;-43
2024/04/16 08:18:32;;;;;;;5.40;1.80;;;17.60;75.20;;;;;;5453281;26;20027;-42
2024/04/16 08:20:58;;;;;;;4.05;1.20;;;17.70;74.60;;;;;;5453331;26;19991;-43
2024/04/16 08:23:23;;;;;;;4.72;1.13;;;17.80;74.70;;;;;;5453381;26;20009;-42
2024/04/16 08:25:59;;;;;;;6.68;1.35;;;17.90;74.90;;;;;;5453324;26;19996;-42
2024/04/16 08:28:25;;;;;;;5.32;1.20;;;18.00;75.10;;;;;;5453118;26;20002;-41
2024/04/16 08:30:53;;;;;;;4.63;1.20;;;18.10;75.10;;;;;;5453185;26;20333;-42
2024/04/16 08:33:22;;;;;;;4.30;1.05;;;18.10;75.20;;;;;;5453465;26;20005;-44
2024/04/16 08:35:49;;;;;;;6.10;1.08;;;18.20;75.70;;;;;;5453337;26;19995;-40
2024/04/16 08:38:15;;;;;;;5.95;1.38;;;18.20;75.80;;;;;;5453450;26;19995;-42
2024/04/16 08:40:41;;;;;;;9.57;1.42;;;18.20;75.80;;;;;;5452836;26;20476;-39
2024/04/16 08:43:06;;;;;;;8.55;1.20;;;18.30;76.10;;;;;;5453118;26;20038;-42
2024/04/16 08:45:32;;;;;;;7.75;1.38;;;18.30;76.20;;;;;;5453074;26;20003;-42
2024/04/16 08:47:59;;;;;;;6.63;1.17;;;18.30;76.60;;;;;;5452762;26;20006;-40
2024/04/16 08:50:25;;;;;;;3.25;0.90;;;18.40;76.30;;;;;;5452949;26;20455;-40
2024/04/16 08:52:52;;;;;;;6.97;1.20;;;18.40;76.40;;;;;;5452828;26;20034;-40
2024/04/16 08:55:19;;;;;;;6.15;1.20;;;18.30;76.40;;;;;;5452904;26;20127;-42
2024/04/16 08:57:46;;;;;;;3.47;1.02;;;18.40;76.80;;;;;;5452531;26;19995;-40
2024/04/16 09:00:12;;;;;;;3.10;1.00;;;18.40;76.70;;;;;;5452777;26;20005;-42
2024/04/16 09:02:38;;;;;;;3.45;1.08;;;18.50;76.90;;;;;;5452897;26;19995;-44
2024/04/16 09:05:05;;;;;;;5.28;1.00;;;18.50;77.00;;;;;;5452645;26;19994;-40
2024/04/16 09:07:33;;;;;;;5.10;0.98;;;18.50;76.90;;;;;;5452566;26;20476;-40
2024/04/16 09:09:59;;;;;;;2.60;0.98;;;18.60;77.00;;;;;;5452582;26;20459;-44
2024/04/16 09:12:24;;;;;;;2.85;0.90;;;18.60;77.00;;;;;;5450935;26;19998;-41
2024/04/16 09:14:51;;;;;;;2.90;1.02;;;18.60;76.90;;;;;;5450914;26;20010;-43
2024/04/16 09:17:16;;;;;;;5.25;0.98;;;18.70;77.00;;;;;;5452615;26;19995;-40
2024/04/16 09:19:43;;;;;;;4.35;1.20;;;18.70;77.00;;;;;;5452254;26;20474;-44
2024/04/16 09:22:09;;;;;;;6.28;1.00;;;18.70;77.00;;;;;;5452492;26;20009;-42
2024/04/16 09:24:35;;;;;;;4.40;0.88;;;18.70;76.90;;;;;;5452545;26;20340;-42
2024/04/16 09:27:08;;;;;;;2.78;0.90;;;18.80;76.90;;;;;;5452467;26;20006;-44
2024/04/16 09:29:34;;;;;;;2.70;0.80;;;18.80;76.90;;;;;;5452445;26;20010;-42
2024/04/16 09:32:02;;;;;;;3.83;0.85;;;18.80;76.90;;;;;;5452301;26;20344;-41
2024/04/16 09:34:28;;;;;;;5.38;0.88;;;18.80;76.90;;;;;;5452285;26;19995;-45
2024/04/16 09:36:53;;;;;;;5.45;1.20;;;18.80;76.80;;;;;;5452308;26;19995;-44
2024/04/16 09:39:20;;;;;;;4.03;0.70;;;18.90;76.80;;;;;;5452102;26;20005;-40
2024/04/16 09:41:47;;;;;;;2.47;0.73;;;18.90;76.80;;;;;;5450391;26;19999;-40
2024/04/16 09:44:15;;;;;;;2.67;0.80;;;19.00;76.80;;;;;;5452285;26;19999;-45
2024/04/16 09:46:43;;;;;;;4.32;1.20;;;19.00;76.70;;;;;;5451983;26;20451;-39
2024/04/16 09:49:12;;;;;;;1.80;0.88;;;19.00;76.80;;;;;;5451980;26;20024;-41
2024/04/16 09:51:39;;;;;;;3.90;1.00;;;19.00;76.80;;;;;;5452277;26;20012;-42
2024/04/16 09:54:06;;;;;;;2.38;0.73;;;19.00;76.60;;;;;;5451940;26;20344;-43
2024/04/16 09:56:33;;;;;;;3.85;0.70;;;19.00;76.80;;;;;;5451957;26;20460;-40
2024/04/16 09:59:01;;;;;;;2.22;0.70;;;19.10;76.80;;;;;;5451812;26;20005;-41
2024/04/16 10:01:28;;;;;;;1.60;0.60;;;19.10;76.80;;;;;;5451758;26;19999;-42
2024/04/16 10:03:55;;;;;;;2.65;0.80;;;19.10;76.80;;;;;;5452068;26;20457;-40
2024/04/16 10:06:21;;;;;;;3.50;0.60;;;19.10;76.70;;;;;;5451825;26;19999;-41
2024/04/16 10:08:48;;;;;;;2.38;0.70;;;19.10;77.60;;;;;;5451525;26;20010;-43
2024/04/16 10:11:15;;;;;;;2.80;0.80;;;19.10;76.70;;;;;;5451849;26;19999;-40
2024/04/16 10:13:42;;;;;;;3.17;0.80;;;19.10;76.80;;;;;;5450740;26;20009;-42
2024/04/16 10:16:17;;;;;;;2.20;0.60;;;19.10;77.00;;;;;;5451820;26;20715;-40
2024/04/16 10:18:56;;;;;;;2.58;1.00;;;19.00;77.10;;;;;;5451711;26;20007;-42
2024/04/16 10:21:26;;;;;;;2.60;0.70;;;19.00;77.40;;;;;;5451690;26;20448;-40
2024/04/16 10:24:02;;;;;;;1.40;0.55;;;19.00;77.30;;;;;;5451545;26;20332;-42
2024/04/16 10:26:30;;;;;;;4.07;0.80;;;19.00;77.30;;;;;;5451717;26;19995;-41
2024/04/16 10:29:01;;;;;;;3.28;0.63;;;19.00;77.30;;;;;;5451928;26;19995;-41
2024/04/16 10:31:33;;;;;;;3.00;0.90;;;19.00;77.00;;;;;;5451648;26;19998;-40
2024/04/16 10:34:03;;;;;;;1.77;0.70;;;19.10;77.00;;;;;;5451431;26;19999;-40
2024/04/16 10:36:30;;;;;;;3.40;0.60;;;19.10;76.90;;;;;;5451345;26;19999;-40
2024/04/16 10:38:56;;;;;;;2.25;0.77;;;19.10;76.90;;;;;;5451011;26;20018;-43
2024/04/16 10:41:28;;;;;;;2.10;0.73;;;19.10;77.00;;;;;;5451269;26;20014;-41
2024/04/16 10:43:55;;;;;;;2.60;0.65;;;19.10;77.20;;;;;;5449546;26;20044;-40
2024/04/16 10:46:23;;;;;;;4.38;0.73;;;19.10;77.20;;;;;;5451551;26;19994;-40
2024/04/16 10:48:50;;;;;;;2.80;0.68;;;19.10;77.30;;;;;;5451072;26;20398;-41
2024/04/16 10:51:16;;;;;;;1.88;0.50;;;19.10;77.40;;;;;;5450919;26;20010;-45
2024/04/16 10:53:42;;;;;;;2.95;0.70;;;19.10;77.40;;;;;;5451040;26;20471;-46
2024/04/16 10:56:09;;;;;;;2.85;0.70;;;19.10;77.40;;;;;;5451016;26;20111;-42
2024/04/16 10:58:35;;;;;;;2.28;0.70;;;19.10;77.30;;;;;;5450858;26;20014;-40
2024/04/16 11:01:01;;;;;;;3.38;0.60;;;19.20;77.50;;;;;;5450891;26;19999;-41
2024/04/16 11:03:28;;;;;;;2.47;0.70;;;19.20;77.50;;;;;;5450973;26;20005;-40
2024/04/16 11:05:56;;;;;;;2.20;0.75;;;19.20;77.50;;;;;;5451049;26;19995;-40
2024/04/16 11:08:22;;;;;;;1.25;0.60;;;19.20;77.50;;;;;;5450579;26;20009;-44
2024/04/16 11:10:49;;;;;;;1.58;0.60;;;19.20;77.50;;;;;;5450816;26;20014;-40
2024/04/16 11:13:18;;;;;;;1.38;0.40;;;19.20;77.60;;;;;;5450792;26;20006;-44
2024/04/16 11:15:44;;;;;;;2.00;0.80;;;19.20;77.60;;;;;;5450801;26;20007;-41
2024/04/16 11:18:10;;;;;;;1.02;0.52;;;19.20;77.50;;;;;;5450513;26;20472;-39
2024/04/16 11:20:36;;;;;;;1.73;0.60;;;19.30;77.40;;;;;;5450376;26;19998;-40
2024/04/16 11:23:04;;;;;;;1.48;0.50;;;19.30;77.20;;;;;;5450561;26;19995;-43
2024/04/16 11:25:31;;;;;;;3.13;0.50;;;19.30;77.20;;;;;;5452655;26;20472;-40
2024/04/16 11:27:56;;;;;;;1.35;0.60;;;19.30;77.30;;;;;;5454329;26;19998;-45
2024/04/16 11:30:22;;;;;;;3.40;0.70;;;19.30;77.20;;;;;;5454191;26;19994;-44
2024/04/16 11:32:48;;;;;;;1.15;0.55;;;19.30;77.10;;;;;;5454256;26;19998;-40
2024/04/16 11:35:14;;;;;;;1.60;0.50;;;19.40;77.20;;;;;;5454139;26;20039;-42
2024/04/16 11:37:44;;;;;;;0.98;0.50;;;19.40;77.20;;;;;;5453867;26;19994;-41
2024/04/16 11:40:10;;;;;;;1.00;0.40;;;19.40;77.20;;;;;;5453994;26;20156;-42
2024/04/16 11:42:36;;;;;;;1.42;0.55;;;19.40;77.20;;;;;;5454045;26;20007;-42
2024/04/16 11:45:02;;;;;;;1.30;0.50;;;19.40;77.10;;;;;;5453984;26;20340;-46
2024/04/16 11:47:28;;;;;;;1.50;0.40;;;19.40;77.10;;;;;;5453690;26;20007;-41
2024/04/16 11:49:55;;;;;;;1.95;0.60;;;19.40;77.10;;;;;;5453939;26;20027;-42
2024/04/16 11:52:21;;;;;;;1.50;0.50;;;19.40;77.20;;;;;;5453709;26;19994;-42
2024/04/16 11:54:46;;;;;;;3.33;0.70;;;19.40;77.30;;;;;;5453803;26;20351;-42
2024/04/16 11:57:12;;;;;;;2.15;0.60;;;19.40;77.30;;;;;;5453794;26;20007;-43
2024/04/16 11:59:38;;;;;;;0.98;0.40;;;19.40;77.40;;;;;;5453840;26;19995;-42
2024/04/16 12:02:05;;;;;;;1.92;0.52;;;19.30;77.40;;;;;;5453961;26;20002;-42
2024/04/16 12:04:30;;;;;;;3.63;0.80;;;19.30;77.40;;;;;;5453633;26;19999;-40
2024/04/16 12:06:56;;;;;;;1.40;0.75;;;19.30;77.40;;;;;;5453548;26;20006;-42
2024/04/16 12:09:23;;;;;;;1.70;0.60;;;19.30;77.40;;;;;;5453414;26;20068;-45
2024/04/16 12:11:49;;;;;;;1.08;0.35;;;19.30;77.30;;;;;;5453439;26;20470;-40
2024/04/16 12:14:15;;;;;;;1.50;0.57;;;19.30;77.30;;;;;;5453557;26;19999;-46
2024/04/16 12:16:40;;;;;;;1.13;0.47;;;19.30;77.00;;;;;;5453471;26;19999;-40
2024/04/16 12:19:07;;;;;;;1.45;0.60;;;19.40;76.90;;;;;;5453286;26;20002;-42
2024/04/16 12:21:33;;;;;;;1.08;0.38;;;19.40;76.90;;;;;;5453289;26;19995;-40
2024/04/16 12:23:59;;;;;;;1.35;0.52;;;19.40;77.00;;;;;;5453442;26;20029;-44
2024/04/16 12:26:25;;;;;;;1.33;0.55;;;19.40;77.00;;;;;;5453283;26;20005;-42
2024/04/16 12:28:55;;;;;;;1.13;0.45;;;19.30;76.80;;;;;;5453240;26;19995;-42
2024/04/16 12:31:21;;;;;;;2.08;0.40;;;19.40;77.00;;;;;;5453125;26;19999;-42
2024/04/16 12:33:47;;;;;;;0.88;0.50;;;19.30;77.10;;;;;;5453336;26;19995;-40
2024/04/16 12:36:14;;;;;;;1.40;0.40;;;19.30;77.20;;;;;;5452733;26;20001;-40
2024/04/16 12:38:40;;;;;;;0.95;0.43;;;19.30;77.40;;;;;;5453180;26;19995;-44
2024/04/16 12:41:05;;;;;;;1.13;0.50;;;19.30;77.40;;;;;;5453098;26;20013;-40
2024/04/16 12:43:31;;;;;;;1.25;0.45;;;19.30;77.50;;;;;;5453247;26;20071;-45
2024/04/16 12:46:01;;;;;;;1.95;0.38;;;19.30;77.50;;;;;;5453127;26;19995;-43